Time;durP1;ratioP1;P1;durP2;ratioP2;P2;SDS_P1;SDS_P2;PMS_P1;PMS_P2;Temp;Humidity;BMP_temperature;BMP_pressure;BME280_temperature;BME280_humidity;BME280_pressure;Samples;Min_cycle;Max_cycle;Signal;HPM_P1;HPM_P2
2021/03/30 00:00:11;;;;;;;6.28;2.80;;;;;;;11.01;40.39;100856.44;5033045;28;20033;-38
2021/03/30 00:02:36;;;;;;;5.53;2.55;;;;;;;10.88;41.00;100852.53;5033037;28;20099;-37
2021/03/30 00:05:02;;;;;;;6.13;2.60;;;;;;;10.59;40.58;100786.69;5032555;28;20426;-38
2021/03/30 00:07:28;;;;;;;5.88;2.70;;;;;;;10.88;40.85;100854.38;5032542;28;20053;-38
2021/03/30 00:09:53;;;;;;;6.03;2.70;;;;;;;11.11;40.31;100841.84;5032601;28;20029;-38
2021/03/30 00:12:19;;;;;;;5.40;2.63;;;;;;;10.98;40.69;100852.28;5032745;28;20025;-38
2021/03/30 00:14:44;;;;;;;5.57;2.60;;;;;;;10.85;40.78;100846.72;5032726;28;20026;-37
2021/03/30 00:17:10;;;;;;;6.72;2.63;;;;;;;10.87;40.53;100845.56;5032495;28;20104;-37
2021/03/30 00:19:35;;;;;;;5.88;3.17;;;;;;;10.85;40.68;100839.59;5032456;28;20087;-38
2021/03/30 00:22:01;;;;;;;5.88;2.67;;;;;;;10.87;40.76;100847.38;5038507;28;20033;-37
2021/03/30 00:24:26;;;;;;;7.97;2.60;;;;;;;10.66;40.84;100806.28;5051770;28;20029;-36
2021/03/30 00:26:52;;;;;;;8.45;2.70;;;;;;;10.79;41.22;100842.94;5052139;28;20033;-37
2021/03/30 00:29:17;;;;;;;4.10;2.60;;;;;;;10.83;40.87;100841.56;5052394;28;20101;-38
2021/03/30 00:31:42;;;;;;;5.88;2.67;;;;;;;10.82;41.16;100839.09;5052129;28;20465;-37
2021/03/30 00:34:08;;;;;;;8.90;2.65;;;;;;;10.78;41.44;100835.97;5051893;28;20024;-37
2021/03/30 00:36:33;;;;;;;5.70;2.45;;;;;;;10.94;41.36;100835.00;5052015;28;20455;-37
2021/03/30 00:38:59;;;;;;;6.35;2.78;;;;;;;10.91;41.45;100833.53;5052402;28;20032;-37
2021/03/30 00:41:24;;;;;;;7.97;2.92;;;;;;;10.80;41.74;100828.63;5051770;28;20626;-36
2021/03/30 00:43:50;;;;;;;4.57;2.72;;;;;;;10.88;41.33;100823.22;5052451;28;20036;-38
2021/03/30 00:46:16;;;;;;;5.30;2.80;;;;;;;10.98;41.50;100816.81;5051720;28;20565;-38
2021/03/30 00:48:42;;;;;;;6.47;3.10;;;;;;;11.00;41.61;100822.81;5050371;28;20051;-38
2021/03/30 00:51:07;;;;;;;5.65;2.70;;;;;;;10.90;41.82;100815.06;5050526;28;20423;-37
2021/03/30 00:53:33;;;;;;;7.45;3.00;;;;;;;10.99;41.61;100816.66;5033739;28;20037;-37
2021/03/30 00:55:59;;;;;;;7.82;3.45;;;;;;;11.08;41.39;100812.91;5050370;28;20060;-37
2021/03/30 00:58:24;;;;;;;7.63;3.40;;;;;;;10.95;41.68;100816.19;5050759;28;20051;-37
2021/03/30 01:00:50;;;;;;;7.38;3.20;;;;;;;10.95;41.47;100813.53;5050319;28;20033;-38
2021/03/30 01:03:15;;;;;;;6.68;3.05;;;;;;;11.07;41.28;100815.75;5051654;28;20040;-37
2021/03/30 01:05:41;;;;;;;6.80;2.90;;;;;;;10.99;41.29;100815.84;5051234;28;20025;-38
2021/03/30 01:08:30;;;;;;;6.47;2.80;;;;;;;11.01;40.99;100809.31;5051542;28;20075;-36
2021/03/30 01:11:14;;;;;;;6.15;2.92;;;;;;;10.96;40.95;100811.69;5050305;28;20124;-36
2021/03/30 01:14:26;;;;;;;4.82;2.67;;;;;;;10.97;40.92;100813.34;5051736;28;20040;-37
2021/03/30 01:16:57;;;;;;;9.00;2.72;;;;;;;10.98;40.98;100811.50;5040135;28;20044;-36
2021/03/30 01:19:47;;;;;;;7.35;2.50;;;;;;;10.90;41.09;100820.38;5034106;28;20047;-36
2021/03/30 01:22:41;;;;;;;5.03;2.80;;;;;;;10.75;41.46;100817.69;5036090;28;20043;-37
2021/03/30 01:25:07;;;;;;;7.25;2.80;;;;;;;10.75;41.11;100812.34;5024901;28;20045;-37
2021/03/30 01:27:41;;;;;;;7.18;2.83;;;;;;;10.70;41.39;100815.56;5051151;28;20127;-37
2021/03/30 01:30:07;;;;;;;4.60;2.63;;;;;;;10.82;41.84;100815.97;5034022;28;20123;-38
2021/03/30 01:32:44;;;;;;;4.95;2.80;;;;;;;10.90;41.75;100804.41;5049561;28;20039;-37
2021/03/30 01:35:12;;;;;;;6.50;3.10;;;;;;;10.79;41.48;100810.16;5050900;28;20033;-37
2021/03/30 01:37:45;;;;;;;5.20;2.83;;;;;;;10.78;41.66;100811.19;5033385;28;20118;-37
2021/03/30 01:40:12;;;;;;;5.03;2.75;;;;;;;10.68;42.11;100811.41;5033833;28;20025;-37
2021/03/30 01:42:37;;;;;;;5.78;3.08;;;;;;;10.83;41.58;100803.47;5049748;28;20106;-37
2021/03/30 01:45:03;;;;;;;5.22;2.75;;;;;;;10.88;41.61;100799.25;5033310;28;20526;-37
2021/03/30 01:47:29;;;;;;;4.25;2.88;;;;;;;10.91;41.54;100798.91;5049601;28;20020;-37
2021/03/30 01:49:55;;;;;;;5.47;2.85;;;;;;;10.76;42.24;100809.50;5049811;28;20471;-37
2021/03/30 01:52:20;;;;;;;5.55;3.03;;;;;;;10.87;42.02;100791.44;5032829;28;20404;-37
2021/03/30 01:54:47;;;;;;;5.30;2.90;;;;;;;10.79;42.22;100802.19;5049548;28;20032;-37
2021/03/30 01:57:13;;;;;;;6.03;3.40;;;;;;;10.84;42.33;100795.31;5051087;28;20425;-37
2021/03/30 01:59:40;;;;;;;6.82;3.92;;;;;;;10.73;42.05;100790.41;5049052;28;20024;-37
2021/03/30 02:02:05;;;;;;;7.53;3.88;;;;;;;10.79;42.18;100797.66;5049056;28;20457;-37
2021/03/30 02:04:31;;;;;;;8.52;4.10;;;;;;;10.68;42.56;100800.75;5049311;28;20036;-37
2021/03/30 02:06:56;;;;;;;7.68;4.45;;;;;;;10.70;42.72;100799.59;5050060;28;20516;-37
2021/03/30 02:09:25;;;;;;;9.70;4.07;;;;;;;10.56;43.24;100797.69;5049007;28;20020;-37
2021/03/30 02:11:59;;;;;;;11.05;3.88;;;;;;;10.64;43.12;100800.31;5050809;28;20057;-37
2021/03/30 02:14:25;;;;;;;7.18;3.60;;;;;;;10.43;44.06;100800.09;5050454;28;20477;-37
2021/03/30 02:17:29;;;;;;;6.50;3.30;;;;;;;10.49;44.01;100802.06;5050490;28;20028;-36
2021/03/30 02:20:22;;;;;;;7.80;3.55;;;;;;;10.35;44.66;100808.97;4992118;28;20076;-37
2021/03/30 02:22:49;;;;;;;11.30;5.57;;;;;;;9.45;48.12;100818.13;5048948;28;20538;-37
2021/03/30 02:25:14;;;;;;;17.33;7.43;;;;;;;8.29;51.77;100824.41;5050149;28;20105;-37
2021/03/30 02:27:41;;;;;;;14.63;5.65;;;;;;;7.46;52.55;100830.34;5048866;28;20029;-37
2021/03/30 02:30:11;;;;;;;11.73;5.68;;;;;;;7.06;53.18;100829.09;5048822;28;20036;-37
2021/03/30 02:32:38;;;;;;;10.40;5.70;;;;;;;7.44;53.39;100834.97;5049090;28;20112;-37
2021/03/30 02:35:04;;;;;;;14.07;5.70;;;;;;;7.19;53.15;100832.16;5049054;28;20145;-37
2021/03/30 02:37:30;;;;;;;12.55;5.15;;;;;;;6.63;53.46;100836.00;5048481;28;20476;-38
2021/03/30 02:39:55;;;;;;;10.07;4.40;;;;;;;6.65;52.82;100847.28;5048738;28;20031;-37
2021/03/30 02:42:21;;;;;;;10.27;4.45;;;;;;;6.88;52.31;100852.94;5032208;28;20036;-37
2021/03/30 02:44:47;;;;;;;8.38;4.28;;;;;;;7.07;51.50;100844.00;5032045;28;20101;-38
2021/03/30 02:47:14;;;;;;;10.13;4.57;;;;;;;6.90;51.97;100858.09;5048404;28;20051;-38
2021/03/30 02:49:40;;;;;;;10.32;4.57;;;;;;;6.75;52.48;100861.25;5031633;28;20329;-37
2021/03/30 02:52:06;;;;;;;11.10;4.90;;;;;;;6.51;53.36;100863.66;5048086;28;20035;-37
2021/03/30 02:54:31;;;;;;;9.90;4.85;;;;;;;6.64;53.09;100869.41;5031570;28;20021;-38
2021/03/30 02:57:00;;;;;;;10.85;5.45;;;;;;;6.50;53.48;100860.19;5048320;28;20028;-39
2021/03/30 02:59:27;;;;;;;12.02;5.57;;;;;;;6.65;53.73;100856.03;5031900;28;20385;-38
2021/03/30 03:01:53;;;;;;;10.65;5.28;;;;;;;6.36;54.51;100863.31;5048637;28;20021;-38
2021/03/30 03:04:19;;;;;;;13.05;5.75;;;;;;;6.46;54.25;100864.09;5044714;28;20361;-38
2021/03/30 03:06:44;;;;;;;11.10;5.95;;;;;;;6.32;54.90;100862.81;5047227;28;20381;-38
2021/03/30 03:09:11;;;;;;;13.98;5.57;;;;;;;6.98;53.00;100866.91;5047963;28;20029;-38
2021/03/30 03:11:46;;;;;;;10.18;5.53;;;;;;;7.33;51.94;100861.69;5028108;28;20095;-38
2021/03/30 03:14:12;;;;;;;16.90;5.60;;;;;;;6.87;53.65;100859.19;5029414;28;20123;-38
2021/03/30 03:16:38;;;;;;;18.55;5.65;;;;;;;6.46;54.27;100853.53;5028319;28;20108;-38
2021/03/30 03:19:07;;;;;;;14.43;5.80;;;;;;;6.59;54.33;100859.28;5028175;28;20457;-38
2021/03/30 03:21:33;;;;;;;13.65;5.90;;;;;;;6.48;54.03;100856.84;5032320;28;20021;-37
2021/03/30 03:23:58;;;;;;;11.68;5.65;;;;;;;6.60;53.83;100846.88;5049174;28;20461;-38
2021/03/30 03:26:24;;;;;;;12.55;5.50;;;;;;;6.73;53.71;100857.91;5027988;28;20027;-38
2021/03/30 03:28:49;;;;;;;11.40;5.47;;;;;;;6.61;53.98;100857.31;5018921;28;20021;-38
2021/03/30 03:31:15;;;;;;;11.82;5.57;;;;;;;6.62;54.32;100856.31;5033194;28;20025;-37
2021/03/30 03:33:41;;;;;;;11.10;6.20;;;;;;;6.65;54.10;100848.09;5033240;28;20067;-37
2021/03/30 03:36:09;;;;;;;13.40;5.78;;;;;;;6.38;53.57;100814.63;5033419;28;20136;-38
2021/03/30 03:38:36;;;;;;;14.30;6.55;;;;;;;6.54;54.00;100863.34;5032919;28;20476;-38
2021/03/30 03:41:02;;;;;;;12.30;6.03;;;;;;;6.49;54.03;100857.69;5033037;28;20451;-37
2021/03/30 03:43:28;;;;;;;15.32;5.80;;;;;;;6.57;53.43;100853.31;5048218;28;20485;-37
2021/03/30 03:45:53;;;;;;;12.63;5.65;;;;;;;6.62;53.43;100853.69;5032731;28;20032;-38
2021/03/30 03:48:19;;;;;;;14.07;6.22;;;;;;;6.71;52.78;100851.13;5032940;28;20036;-37
2021/03/30 03:50:44;;;;;;;8.90;4.88;;;;;;;6.74;51.53;100853.44;5032674;28;20389;-37
2021/03/30 03:53:11;;;;;;;14.65;5.20;;;;;;;6.59;51.77;100859.28;5031463;28;20044;-38
2021/03/30 03:55:39;;;;;;;14.73;6.30;;;;;;;6.65;52.97;100863.16;5047708;28;20018;-38
2021/03/30 03:58:06;;;;;;;13.00;5.80;;;;;;;6.67;52.59;100849.78;5051194;28;20028;-38
2021/03/30 04:00:31;;;;;;;12.50;6.13;;;;;;;6.80;52.40;100856.34;5051524;28;20029;-38
2021/03/30 04:03:19;;;;;;;13.15;6.28;;;;;;;6.96;52.20;100857.47;5034447;28;20036;-38
2021/03/30 04:05:57;;;;;;;16.00;8.00;;;;;;;6.99;51.75;100854.53;5037462;28;20037;-38
2021/03/30 04:08:22;;;;;;;12.55;6.13;;;;;;;6.82;52.10;100864.13;5052462;28;20152;-38
2021/03/30 04:10:48;;;;;;;76.95;36.67;;;;;;;6.99;52.54;100857.16;5034397;28;20521;-38
2021/03/30 04:13:16;;;;;;;91.18;37.45;;;;;;;6.91;53.24;100862.38;5034244;28;20456;-37
2021/03/30 04:15:42;;;;;;;69.22;30.85;;;;;;;6.80;53.25;100861.63;5034523;28;20032;-38
2021/03/30 04:18:07;;;;;;;36.25;15.50;;;;;;;6.82;53.30;100864.13;5052565;28;20389;-38
2021/03/30 04:20:33;;;;;;;20.80;7.82;;;;;;;6.90;52.86;100853.59;5052231;28;20100;-38
2021/03/30 04:22:59;;;;;;;15.95;7.85;;;;;;;7.03;53.20;100863.81;5050503;28;20044;-37
2021/03/30 04:25:25;;;;;;;22.27;8.50;;;;;;;7.20;52.72;100864.78;5051720;28;20040;-37
2021/03/30 04:27:51;;;;;;;20.20;8.80;;;;;;;7.41;52.99;100862.59;5052235;28;20029;-38
2021/03/30 04:30:17;;;;;;;28.13;10.70;;;;;;;7.27;53.19;100863.16;5051888;28;20087;-37
2021/03/30 04:32:43;;;;;;;25.05;11.55;;;;;;;7.06;54.06;100855.53;5051698;28;20411;-38
2021/03/30 04:35:12;;;;;;;24.55;11.25;;;;;;;7.23;53.71;100864.44;5047457;28;20056;-37
2021/03/30 04:37:38;;;;;;;32.50;16.17;;;;;;;7.09;54.82;100859.72;5050810;28;20485;-38
2021/03/30 04:40:05;;;;;;;38.42;16.17;;;;;;;6.74;54.49;100792.59;5050794;28;20029;-36
2021/03/30 04:42:30;;;;;;;54.10;25.08;;;;;;;7.23;54.53;100870.59;5036795;28;20029;-37
2021/03/30 04:44:56;;;;;;;45.38;22.83;;;;;;;7.38;54.11;100868.19;5040433;28;20017;-37
2021/03/30 04:47:23;;;;;;;25.02;11.15;;;;;;;7.58;53.38;100868.84;5037457;28;20108;-37
2021/03/30 04:49:49;;;;;;;24.70;10.25;;;;;;;7.82;53.13;100876.09;5041817;28;20025;-38
2021/03/30 04:52:14;;;;;;;22.05;9.85;;;;;;;7.97;52.63;100870.19;5039598;28;20090;-39
2021/03/30 04:54:40;;;;;;;26.23;9.85;;;;;;;8.12;52.37;100883.69;5040149;28;20029;-38
2021/03/30 04:57:06;;;;;;;33.00;10.95;;;;;;;8.17;51.76;100876.09;5040536;28;20021;-38
2021/03/30 04:59:31;;;;;;;23.35;10.20;;;;;;;8.21;51.74;100875.59;5039966;28;20036;-37
2021/03/30 05:01:57;;;;;;;31.33;12.73;;;;;;;8.75;50.35;100885.06;5042398;28;20025;-37
2021/03/30 05:04:22;;;;;;;38.63;12.38;;;;;;;8.95;49.37;100891.72;5039141;28;20028;-38
2021/03/30 05:06:48;;;;;;;34.00;10.40;;;;;;;8.68;49.76;100889.34;5042600;28;20036;-38
2021/03/30 05:09:13;;;;;;;20.23;7.40;;;;;;;8.52;49.53;100900.75;5042287;28;20052;-36
2021/03/30 05:11:39;;;;;;;22.75;7.47;;;;;;;8.49;49.66;100904.56;5040043;28;20106;-37
2021/03/30 05:14:05;;;;;;;19.52;7.20;;;;;;;8.65;48.90;100906.44;5040642;28;20063;-37
2021/03/30 05:16:30;;;;;;;14.95;7.40;;;;;;;8.69;48.53;100905.09;5038923;28;20353;-38
2021/03/30 05:18:56;;;;;;;20.17;6.85;;;;;;;8.82;48.96;100903.81;5042543;28;20480;-37
2021/03/30 05:21:22;;;;;;;15.52;6.90;;;;;;;8.94;48.60;100913.94;5039761;28;20029;-37
2021/03/30 05:23:47;;;;;;;19.02;7.15;;;;;;;9.33;47.19;100913.31;5039163;28;20102;-37
2021/03/30 05:26:13;;;;;;;20.60;8.70;;;;;;;9.47;46.81;100906.47;5040126;28;20044;-37
2021/03/30 05:28:39;;;;;;;19.50;8.10;;;;;;;9.87;45.67;100920.69;5038395;28;20032;-36
2021/03/30 05:31:04;;;;;;;19.30;8.63;;;;;;;10.07;45.38;100923.81;5034900;28;20036;-37
2021/03/30 05:33:30;;;;;;;26.67;11.13;;;;;;;10.22;45.08;100923.06;5033955;28;20025;-37
2021/03/30 05:35:55;;;;;;;21.65;10.73;;;;;;;10.41;44.55;100924.53;5030134;28;20025;-37
2021/03/30 05:38:21;;;;;;;27.10;12.98;;;;;;;10.76;47.04;100926.66;5030846;28;20029;-37
2021/03/30 05:40:47;;;;;;;23.42;11.70;;;;;;;11.01;44.77;100926.50;5049181;28;20035;-38
2021/03/30 05:43:12;;;;;;;28.83;10.65;;;;;;;11.39;43.00;100929.22;5048538;28;20028;-38
2021/03/30 05:45:38;;;;;;;20.23;9.43;;;;;;;11.42;42.62;100931.50;5050009;28;20017;-38
2021/03/30 05:48:08;;;;;;;21.90;9.82;;;;;;;11.72;42.02;100929.72;5049730;28;20036;-38
2021/03/30 05:50:35;;;;;;;23.02;9.20;;;;;;;12.01;40.83;100925.44;5048720;28;20029;-38
2021/03/30 05:53:05;;;;;;;20.08;9.20;;;;;;;12.57;39.81;100934.81;5048401;28;20370;-38
2021/03/30 05:55:32;;;;;;;23.33;10.25;;;;;;;12.38;40.35;100921.00;5032490;28;20029;-37
2021/03/30 05:57:59;;;;;;;21.92;10.35;;;;;;;12.54;40.30;100927.97;5048630;28;20029;-37
2021/03/30 06:00:43;;;;;;;24.77;9.95;;;;;;;12.71;39.07;100925.91;5049886;28;20306;-37
2021/03/30 06:03:10;;;;;;;30.70;12.25;;;;;;;13.06;38.79;100928.72;5033132;28;20126;-38
2021/03/30 06:05:36;;;;;;;25.00;11.48;;;;;;;13.92;37.94;100928.63;5048329;28;20032;-38
2021/03/30 06:08:02;;;;;;;25.90;12.65;;;;;;;13.98;37.04;100930.50;5031573;28;20049;-39
2021/03/30 06:10:29;;;;;;;24.38;11.82;;;;;;;14.36;36.82;100927.41;5049603;28;20044;-37
2021/03/30 06:12:58;;;;;;;46.95;18.42;;;;;;;15.60;37.51;100944.16;5049920;28;20409;-37
2021/03/30 06:15:34;;;;;;;38.92;14.88;;;;;;;16.71;34.21;100942.44;5049765;28;20056;-38
2021/03/30 06:18:00;;;;;;;40.17;15.65;;;;;;;17.38;34.19;100932.06;5035507;28;20048;-38
2021/03/30 06:20:33;;;;;;;34.92;13.88;;;;;;;18.42;31.60;100936.88;5029545;28;20083;-38
2021/03/30 06:23:03;;;;;;;42.58;16.48;;;;;;;18.59;31.69;100942.47;5044155;28;20051;-37
2021/03/30 06:25:46;;;;;;;35.80;15.07;;;;;;;19.41;30.90;100944.59;5047689;28;20040;-37
2021/03/30 06:28:18;;;;;;;33.35;12.43;;;;;;;20.07;29.17;100940.75;5049500;28;20074;-38
2021/03/30 06:31:10;;;;;;;29.70;13.50;;;;;;;20.18;28.94;100935.53;5049178;28;20033;-38
2021/03/30 06:33:54;;;;;;;22.33;10.57;;;;;;;20.93;27.51;100933.78;5049426;28;20021;-38
2021/03/30 06:36:26;;;;;;;35.03;15.02;;;;;;;20.33;28.07;100935.03;5049600;28;20045;-38
2021/03/30 06:38:51;;;;;;;30.58;13.38;;;;;;;20.47;28.25;100933.72;5049352;28;20068;-38
2021/03/30 06:47:17;;;;;;;27.00;9.70;;;;;;;23.36;25.22;100938.34;5049399;28;20421;-38
2021/03/30 06:49:58;;;;;;;29.08;9.43;;;;;;;23.79;24.62;100950.06;5049384;28;20035;-38
2021/03/30 06:52:35;;;;;;;21.52;8.00;;;;;;;24.09;24.05;100943.16;5047982;28;20029;-39
2021/03/30 06:55:04;;;;;;;17.95;7.63;;;;;;;24.35;24.43;100946.81;5049560;28;20028;-38
2021/03/30 06:57:30;;;;;;;;;;;;;;;24.80;23.20;100944.50;5049694;28;20545;-38
2021/03/30 06:59:56;;;;;;;15.15;7.38;;;;;;;24.79;23.44;100948.31;5049101;28;20054;-38
2021/03/30 07:02:21;;;;;;;14.25;7.00;;;;;;;24.49;23.31;100946.31;5049497;28;20036;-38
2021/03/30 07:04:54;;;;;;;11.65;6.88;;;;;;;24.15;23.81;100942.09;5050394;28;20017;-38
2021/03/30 07:07:21;;;;;;;17.35;6.90;;;;;;;23.68;23.88;100939.34;5052927;28;20111;-38
2021/03/30 07:09:46;;;;;;;21.00;7.10;;;;;;;22.22;25.52;100940.94;5035369;28;20055;-38
2021/03/30 07:12:12;;;;;;;13.70;6.95;;;;;;;21.89;25.79;100936.41;5050158;28;20037;-38
2021/03/30 07:14:37;;;;;;;17.80;7.20;;;;;;;21.53;26.48;100940.47;5031957;28;20040;-39
2021/03/30 07:17:03;;;;;;;15.50;7.10;;;;;;;22.84;25.28;100942.44;5033762;28;20025;-38
2021/03/30 07:19:30;;;;;;;17.23;8.50;;;;;;;23.79;24.33;100946.53;5015642;28;20029;-38
2021/03/30 07:22:04;;;;;;;18.05;6.43;;;;;;;24.05;23.94;100949.41;5036486;28;20096;-38
2021/03/30 07:24:45;;;;;;;12.38;5.47;;;;;;;24.38;23.72;100948.16;5051931;28;20131;-39
2021/03/30 07:27:16;;;;;;;10.15;5.57;;;;;;;24.69;23.76;100949.09;5051793;28;20021;-39
2021/03/30 07:29:46;;;;;;;10.80;5.38;;;;;;;25.28;22.85;100947.03;5051694;28;20037;-39
2021/03/30 07:32:37;;;;;;;10.07;5.40;;;;;;;25.46;22.20;100948.38;5044889;28;20493;-39
2021/03/30 07:35:15;;;;;;;13.48;5.55;;;;;;;25.31;23.04;100951.94;5047096;28;20033;-39
2021/03/30 07:38:04;;;;;;;11.30;4.95;;;;;;;25.02;23.07;100952.44;5051966;28;20066;-39
2021/03/30 07:40:30;;;;;;;11.52;4.78;;;;;;;24.84;23.12;100951.03;5051424;28;20072;-39
2021/03/30 07:42:56;;;;;;;13.43;4.53;;;;;;;25.40;22.74;100953.03;5052405;28;20035;-39
2021/03/30 07:45:23;;;;;;;8.43;5.03;;;;;;;25.65;22.58;100957.63;5052774;28;20063;-39
2021/03/30 07:47:49;;;;;;;8.43;4.45;;;;;;;25.75;22.46;100962.25;5051361;28;20033;-39
2021/03/30 07:50:15;;;;;;;9.85;4.82;;;;;;;25.85;22.22;100961.41;5050837;28;20421;-38
2021/03/30 07:52:46;;;;;;;13.68;5.30;;;;;;;25.15;22.85;100959.22;5051292;28;20111;-39
2021/03/30 07:55:17;;;;;;;10.10;5.68;;;;;;;25.84;22.41;100966.03;5051193;28;20037;-39
2021/03/30 07:57:55;;;;;;;8.50;5.13;;;;;;;25.65;22.67;100960.34;5052509;28;20495;-39
2021/03/30 08:00:33;;;;;;;10.30;5.03;;;;;;;25.61;22.06;100956.53;5050621;28;20425;-39
2021/03/30 08:03:17;;;;;;;14.15;6.53;;;;;;;24.27;23.49;100962.81;5052988;28;20448;-39
2021/03/30 08:05:42;;;;;;;19.48;11.00;;;;;;;23.26;24.76;100956.44;5052400;28;20553;-39
2021/03/30 08:08:20;;;;;;;16.15;5.03;;;;;;;24.11;23.54;100964.66;5052237;28;20140;-38
2021/03/30 08:10:46;;;;;;;12.07;4.75;;;;;;;23.92;23.42;100959.66;5052369;28;20524;-39
2021/03/30 08:13:31;;;;;;;7.75;4.80;;;;;;;23.06;24.84;100963.34;5052541;28;20056;-40
2021/03/30 08:16:02;;;;;;;8.80;4.60;;;;;;;22.59;25.03;100961.19;5051021;28;20025;-39
2021/03/30 08:18:29;;;;;;;8.38;4.53;;;;;;;23.71;23.30;100961.41;5050707;28;20025;-39
2021/03/30 08:21:11;;;;;;;7.10;4.20;;;;;;;21.98;24.58;100962.00;5051982;28;20041;-39
2021/03/30 08:23:52;;;;;;;10.25;4.65;;;;;;;23.04;23.02;100954.63;5032269;28;20041;-39
2021/03/30 08:26:27;;;;;;;7.18;4.45;;;;;;;24.13;22.57;100963.28;5032312;28;20033;-39
2021/03/30 08:29:06;;;;;;;8.63;4.40;;;;;;;25.18;22.67;100950.53;5032195;28;20026;-38
2021/03/30 08:31:40;;;;;;;8.30;4.72;;;;;;;25.88;21.46;100952.69;5036617;28;20031;-39
2021/03/30 08:34:13;;;;;;;7.40;4.40;;;;;;;25.47;20.97;100950.81;5051820;28;20033;-39
2021/03/30 08:36:49;;;;;;;6.18;4.03;;;;;;;25.91;20.34;100943.91;5051653;28;20418;-39
2021/03/30 08:39:17;;;;;;;9.18;4.20;;;;;;;25.18;21.20;100939.63;5051521;28;20418;-39
2021/03/30 08:41:43;;;;;;;8.95;4.93;;;;;;;25.01;21.10;100944.53;5050456;28;20040;-39
2021/03/30 08:44:19;;;;;;;9.70;4.50;;;;;;;25.12;21.22;100936.09;5051677;28;20459;-39
2021/03/30 08:46:52;;;;;;;7.85;4.28;;;;;;;25.43;19.98;100924.41;5052157;28;20021;-38
2021/03/30 08:49:24;;;;;;;8.00;4.05;;;;;;;24.88;20.36;100945.88;5051606;28;20025;-39
2021/03/30 08:51:56;;;;;;;7.40;4.70;;;;;;;24.27;20.73;100946.50;5051613;28;20075;-39
2021/03/30 08:54:27;;;;;;;11.10;5.10;;;;;;;23.86;21.86;100924.56;5051270;28;20119;-39
2021/03/30 08:57:13;;;;;;;9.02;4.55;;;;;;;24.14;22.12;100943.19;5051615;28;20032;-39
2021/03/30 08:59:39;;;;;;;9.05;4.50;;;;;;;24.47;21.74;100941.13;5051292;28;20033;-38
2021/03/30 09:02:09;;;;;;;8.23;4.35;;;;;;;25.00;20.98;100934.72;5051175;28;20033;-39
2021/03/30 09:04:39;;;;;;;9.00;4.93;;;;;;;24.48;21.06;100940.03;5049859;28;20488;-39
2021/03/30 09:07:09;;;;;;;8.98;4.55;;;;;;;24.22;21.32;100943.75;5050762;28;20052;-39
2021/03/30 09:09:36;;;;;;;8.95;4.80;;;;;;;24.69;20.96;100931.97;5050178;28;20060;-39
2021/03/30 09:12:06;;;;;;;9.48;4.70;;;;;;;24.55;20.90;100927.03;5050911;28;20055;-39
2021/03/30 09:14:32;;;;;;;8.73;4.65;;;;;;;24.92;21.15;100934.19;5051186;28;20528;-39
2021/03/30 09:17:05;;;;;;;11.77;4.95;;;;;;;23.28;21.67;100930.66;5051352;28;20051;-39
2021/03/30 09:19:34;;;;;;;8.50;4.50;;;;;;;23.72;21.39;100930.44;5050646;28;20024;-40
2021/03/30 09:22:24;;;;;;;7.80;4.03;;;;;;;22.30;22.30;100915.28;5044615;28;20132;-38
2021/03/30 09:25:04;;;;;;;10.43;4.20;;;;;;;22.35;22.93;100920.78;5032918;28;20067;-40
2021/03/30 09:27:32;;;;;;;14.48;8.45;;;;;;;22.42;23.05;100915.16;5050086;28;20105;-38
2021/03/30 09:29:59;;;;;;;8.80;4.70;;;;;;;21.88;22.99;100925.84;5050579;28;20048;-39
2021/03/30 09:32:25;;;;;;;8.70;3.78;;;;;;;22.08;22.63;100912.53;5050925;28;20241;-39
2021/03/30 09:34:51;;;;;;;8.02;4.00;;;;;;;23.15;22.26;100918.34;5031940;28;20512;-39
2021/03/30 09:37:17;;;;;;;6.10;3.90;;;;;;;23.92;20.78;100918.06;5050269;28;20025;-39
2021/03/30 09:39:43;;;;;;;8.63;4.32;;;;;;;23.60;20.98;100919.75;5050549;28;20029;-39
2021/03/30 09:42:08;;;;;;;8.35;4.50;;;;;;;23.89;20.48;100916.69;5029022;28;20400;-39
2021/03/30 09:44:38;;;;;;;7.70;3.70;;;;;;;24.58;20.42;100910.19;5030408;28;20049;-40
2021/03/30 09:47:04;;;;;;;5.45;3.80;;;;;;;24.85;19.67;100902.88;5033086;28;20029;-40
2021/03/30 09:49:29;;;;;;;8.65;4.05;;;;;;;24.38;19.66;100910.09;5032125;28;20040;-39
2021/03/30 09:51:55;;;;;;;8.05;4.10;;;;;;;24.24;20.41;100908.94;5048663;28;20496;-38
2021/03/30 09:54:30;;;;;;;7.35;3.50;;;;;;;23.87;21.21;100907.97;5049844;28;20033;-38
2021/03/30 09:57:10;;;;;;;6.90;3.83;;;;;;;23.00;21.23;100889.16;5050229;28;20025;-40
2021/03/30 09:59:35;;;;;;;;;;;;;;;22.33;22.43;100893.09;5050790;28;20520;-39
2021/03/30 10:02:02;;;;;;;7.57;4.20;;;;;;;22.49;22.03;100888.66;5050083;28;19963;-39
2021/03/30 10:04:28;;;;;;;7.45;3.67;;;;;;;23.64;21.51;100892.88;5048804;28;20115;-38
2021/03/30 10:06:54;;;;;;;8.50;4.43;;;;;;;24.85;20.21;100881.91;5040076;28;20470;-39
2021/03/30 10:09:19;;;;;;;7.35;3.97;;;;;;;25.36;19.19;100881.13;5042675;28;20024;-38
2021/03/30 10:11:47;;;;;;;8.90;3.92;;;;;;;26.09;18.78;100874.38;5041929;28;20029;-39
2021/03/30 10:14:26;;;;;;;6.78;3.80;;;;;;;25.11;19.52;100869.13;5023729;28;20095;-38
2021/03/30 10:16:53;;;;;;;11.02;3.90;;;;;;;25.24;19.84;100865.03;5040887;28;20033;-39
2021/03/30 10:19:19;;;;;;;7.65;4.30;;;;;;;24.98;20.06;100866.94;5038022;28;20029;-40
2021/03/30 10:21:47;;;;;;;7.15;4.10;;;;;;;25.79;19.03;100865.19;5045495;28;20079;-38
2021/03/30 10:24:17;;;;;;;8.00;4.43;;;;;;;25.59;19.33;100867.97;5050749;28;20108;-39
2021/03/30 10:26:43;;;;;;;10.57;4.00;;;;;;;25.72;18.44;100856.47;5050513;28;20029;-39
2021/03/30 10:29:20;;;;;;;11.55;4.22;;;;;;;25.25;18.84;100863.16;5048498;28;20029;-38
2021/03/30 10:31:57;;;;;;;6.68;3.72;;;;;;;24.24;19.48;100863.56;5051011;28;20110;-40
2021/03/30 10:34:27;;;;;;;10.82;5.57;;;;;;;24.59;19.56;100857.38;5049244;28;20029;-39
2021/03/30 10:36:54;;;;;;;7.43;4.13;;;;;;;24.71;19.07;100853.59;5050009;28;20448;-40
2021/03/30 10:40:00;;;;;;;7.28;3.80;;;;;;;25.52;18.57;100858.19;5049844;28;20083;-40
2021/03/30 10:42:29;;;;;;;5.95;3.63;;;;;;;25.43;18.31;100850.84;5019355;28;20098;-40
2021/03/30 10:45:00;;;;;;;4.90;3.42;;;;;;;25.34;18.96;100847.84;5050665;28;20013;-38
2021/03/30 10:47:30;;;;;;;7.47;3.40;;;;;;;24.92;17.59;100846.25;5041301;28;20049;-39
2021/03/30 10:49:56;;;;;;;6.00;3.63;;;;;;;24.27;18.43;100845.88;5039175;28;20044;-39
2021/03/30 10:52:27;;;;;;;5.32;3.80;;;;;;;22.89;19.91;100843.19;5041755;28;20469;-49
2021/03/30 10:54:55;;;;;;;5.80;3.90;;;;;;;21.27;21.03;100839.91;5038672;28;20382;-51
2021/03/30 10:57:26;;;;;;;6.43;3.83;;;;;;;21.33;21.51;100829.97;5038677;28;20033;-51
2021/03/30 10:59:52;;;;;;;47.45;29.90;;;;;;;22.61;20.43;100821.50;5040350;28;20031;-49
2021/03/30 11:02:18;;;;;;;7.95;4.18;;;;;;;23.39;19.53;100833.78;5038360;28;20030;-51
2021/03/30 11:04:44;;;;;;;6.13;3.65;;;;;;;22.40;20.27;100823.19;5035329;28;20036;-50
2021/03/30 11:07:10;;;;;;;5.85;3.83;;;;;;;21.46;21.23;100814.22;5029952;28;20061;-52
2021/03/30 11:09:36;;;;;;;5.78;3.45;;;;;;;22.62;20.33;100812.28;5028282;28;20059;-52
2021/03/30 11:12:01;;;;;;;7.57;3.60;;;;;;;22.81;20.92;100815.44;5030320;28;20026;-49
2021/03/30 11:14:27;;;;;;;5.85;3.88;;;;;;;21.50;21.48;100805.59;5029658;28;20025;-52
2021/03/30 11:16:53;;;;;;;8.38;4.05;;;;;;;21.18;21.93;100792.66;5029757;28;20416;-49
2021/03/30 11:19:18;;;;;;;7.30;4.00;;;;;;;21.09;22.22;100797.69;5029704;28;20477;-51
2021/03/30 11:21:44;;;;;;;9.85;3.90;;;;;;;21.57;21.91;100790.81;5033892;28;20025;-52
2021/03/30 11:24:14;;;;;;;7.72;4.25;;;;;;;21.37;21.46;100790.50;5049208;28;20499;-49
2021/03/30 11:26:41;;;;;;;7.55;4.18;;;;;;;21.60;21.54;100787.59;5048140;28;20052;-50
2021/03/30 11:29:10;;;;;;;5.55;3.97;;;;;;;22.48;20.73;100785.84;5049117;28;20407;-51
2021/03/30 11:34:10;;;;;;;7.53;3.85;;;;;;;23.43;20.19;100788.72;5037321;28;20017;-51
2021/03/30 11:36:41;;;;;;;5.38;3.22;;;;;;;22.46;20.66;100775.25;5037746;28;20033;-51
2021/03/30 11:39:06;;;;;;;5.32;3.47;;;;;;;21.78;20.86;100778.34;5035263;28;20025;-48